Time;durP1;ratioP1;P1;durP2;ratioP2;P2;SDS_P1;SDS_P2;PMS_P1;PMS_P2;Temp;Humidity;BMP_temperature;BMP_pressure;BME280_temperature;BME280_humidity;BME280_pressure;Samples;Min_cycle;Max_cycle;Signal;HPM_P1;HPM_P2
2021/07/29 00:02:15;;;;;;;;;;;;;;;26.02;44.88;100667.47;5014771;28;96752;-86
2021/07/29 00:04:42;;;;;;;;;;;;;;;26.08;44.77;100668.69;5016168;27;96866;-84
2021/07/29 00:07:08;;;;;;;;;;;;;;;26.11;44.68;100676.53;5017497;28;100861;-83
2021/07/29 00:09:36;;;;;;;;;;;;;;;25.99;45.08;100677.78;5030011;28;100449;-83
2021/07/29 00:12:02;;;;;;;;;;;;;;;25.70;45.51;100664.47;5017893;28;96925;-83
2021/07/29 00:14:29;;;;;;;;;;;;;;;25.75;45.70;100676.53;5017871;28;97006;-84
2021/07/29 00:16:59;;;;;;;;;;;;;;;25.63;46.05;100671.47;5029686;28;101959;-83
2021/07/29 00:19:24;;;;;;;;;;;;;;;25.69;46.04;100677.13;5036853;28;97892;-83
2021/07/29 00:21:51;;;;;;;;;;;;;;;25.71;45.82;100667.03;5030179;28;96799;-82
2021/07/29 00:24:17;;;;;;;;;;;;;;;25.70;45.94;100659.91;5026049;28;96921;-82
2021/07/29 00:26:45;;;;;;;;;;;;;;;25.72;45.85;100660.59;5033878;28;99401;-83
2021/07/29 00:29:12;;;;;;;;;;;;;;;25.71;45.89;100661.59;5023886;28;96841;-84
2021/07/29 00:31:38;;;;;;;;;;;;;;;25.76;45.97;100661.13;5021162;28;96823;-84
2021/07/29 00:34:05;;;;;;;;;;;;;;;25.75;45.97;100663.00;5023514;28;96633;-84
2021/07/29 00:36:32;;;;;;;;;;;;;;;25.80;45.59;100660.66;5018313;28;101370;-82
2021/07/29 00:38:58;;;;;;;;;;;;;;;25.73;46.04;100662.28;5018052;28;99281;-84
2021/07/29 00:41:25;;;;;;;;;;;;;;;25.70;46.13;100664.47;5018703;28;97169;-82
2021/07/29 00:44:01;;;;;;;;;;;;;;;25.62;46.28;100658.97;5017613;28;96861;-83
2021/07/29 00:46:28;;;;;;;;;;;;;;;25.69;46.10;100662.75;5017248;28;98284;-84
2021/07/29 00:48:55;;;;;;;;;;;;;;;25.64;46.37;100665.94;5016893;28;100532;-82
2021/07/29 00:51:21;;;;;;;;;;;;;;;25.74;46.08;100658.56;5017148;28;96835;-83
2021/07/29 00:53:47;;;;;;;;;;;;;;;25.80;45.65;100659.81;5018805;28;97120;-82
2021/07/29 00:56:14;;;;;;;;;;;;;;;25.71;46.19;100656.19;5010073;28;101818;-83
2021/07/29 00:58:40;;;;;;;;;;;;;;;25.65;46.40;100655.97;5025427;27;98718;-83
2021/07/29 01:01:08;;;;;;;;;;;;;;;25.63;46.38;100656.09;5015394;28;96850;-83
2021/07/29 01:03:34;;;;;;;;;;;;;;;25.66;46.10;100661.22;5018545;28;96975;-83
2021/07/29 01:06:01;;;;;;;;;;;;;;;25.72;45.92;100662.47;5015825;28;97976;-84
2021/07/29 01:08:27;;;;;;;;;;;;;;;25.68;46.49;100653.78;5018983;28;99236;-84
2021/07/29 01:10:53;;;;;;;;;;;;;;;25.46;46.99;100648.78;5018428;28;97038;-83
2021/07/29 01:13:20;;;;;;;;;;;;;;;25.58;46.71;100650.31;5014727;28;97007;-82
2021/07/29 01:15:46;;;;;;;;;;;;;;;25.61;46.27;100649.97;5016086;28;99447;-83
2021/07/29 01:18:14;;;;;;;;;;;;;;;25.62;46.26;100654.41;5024942;28;99753;-81
2021/07/29 01:20:42;;;;;;;;;;;;;;;25.54;46.87;100656.13;5033908;28;96570;-82
2021/07/29 01:23:09;;;;;;;;;;;;;;;25.43;47.00;100654.50;5034977;28;97833;-82
2021/07/29 01:25:35;;;;;;;;;;;;;;;25.36;47.06;100650.69;5029237;28;100593;-83
2021/07/29 01:28:01;;;;;;;;;;;;;;;25.41;47.12;100645.66;5022500;28;100737;-83
2021/07/29 01:30:28;;;;;;;;;;;;;;;25.42;47.26;100639.25;5026527;28;97091;-82
2021/07/29 01:32:54;;;;;;;;;;;;;;;25.43;47.05;100643.69;5020015;28;97010;-82
2021/07/29 01:35:21;;;;;;;;;;;;;;;25.35;47.00;100636.31;5019932;28;97530;-82
2021/07/29 01:37:50;;;;;;;;;;;;;;;25.30;47.28;100629.66;5035570;28;99415;-82
2021/07/29 01:40:16;;;;;;;;;;;;;;;25.28;47.71;100629.81;5020032;28;96717;-82
2021/07/29 01:42:43;;;;;;;;;;;;;;;25.33;47.17;100626.69;5010386;28;97440;-83
2021/07/29 01:45:10;;;;;;;;;;;;;;;25.25;47.73;100629.28;5017141;28;101779;-83
2021/07/29 01:47:36;;;;;;;;;;;;;;;25.05;48.00;100627.69;5002717;28;101959;-83
2021/07/29 01:50:03;;;;;;;;;;;;;;;25.14;48.15;100621.38;4998716;28;96713;-84
2021/07/29 01:52:29;;;;;;;;;;;;;;;25.12;48.02;100617.97;5020505;28;96872;-84
2021/07/29 01:54:57;;;;;;;;;;;;;;;25.18;48.09;100622.78;5017787;28;101589;-83
2021/07/29 01:57:23;;;;;;;;;;;;;;;25.16;47.74;100628.31;5025867;28;100867;-84
2021/07/29 01:59:50;;;;;;;;;;;;;;;25.16;47.75;100632.88;5015535;28;96852;-83
2021/07/29 02:02:16;;;;;;;;;;;;;;;25.11;47.90;100633.34;5017139;28;96862;-83
2021/07/29 02:04:43;;;;;;;;;;;;;;;25.05;48.35;100631.22;5015561;28;96802;-83
2021/07/29 02:07:09;;;;;;;;;;;;;;;25.12;47.89;100640.44;5015179;28;102032;-83
2021/07/29 02:09:36;;;;;;;;;;;;;;;25.09;48.09;100638.03;5024748;28;97088;-83
2021/07/29 02:12:04;;;;;;;;;;;;;;;25.03;48.21;100635.94;5025314;28;96990;-82
2021/07/29 02:14:31;;;;;;;;;;;;;;;24.93;48.40;100641.41;5028421;28;97816;-82
2021/07/29 02:16:57;;;;;;;;;;;;;;;24.93;48.51;100644.09;5034405;28;98985;-83
2021/07/29 02:19:24;;;;;;;;;;;;;;;24.84;49.05;100650.34;5025407;28;96317;-82
2021/07/29 02:21:51;;;;;;;;;;;;;;;24.86;48.82;100650.22;5031822;28;96656;-81
2021/07/29 02:24:17;;;;;;;;;;;;;;;24.87;48.78;100643.81;5035819;28;99392;-82
2021/07/29 02:26:44;;;;;;;;;;;;;;;24.85;48.86;100640.41;5037319;28;99544;-82
2021/07/29 02:29:12;;;;;;;;;;;;;;;24.83;48.67;100635.13;5038260;28;96824;-82
2021/07/29 02:31:39;;;;;;;;;;;;;;;24.80;49.00;100635.44;5024945;28;96926;-83
2021/07/29 02:34:05;;;;;;;;;;;;;;;24.94;48.46;100634.97;5011869;28;100425;-83
2021/07/29 02:36:31;;;;;;;;;;;;;;;24.86;48.93;100634.84;5014139;28;99961;-83
2021/07/29 02:38:58;;;;;;;;;;;;;;;24.75;49.17;100637.72;5024435;28;96676;-82
2021/07/29 02:41:24;;;;;;;;;;;;;;;24.71;49.15;100638.16;5034080;28;96739;-82
2021/07/29 02:43:50;;;;;;;;;;;;;;;24.70;49.27;100649.97;5023248;28;99561;-82
2021/07/29 02:46:18;;;;;;;;;;;;;;;24.68;49.26;100633.91;5024900;28;98907;-83
2021/07/29 02:48:45;;;;;;;;;;;;;;;24.70;49.43;100637.31;5023160;28;96703;-83
2021/07/29 02:51:11;;;;;;;;;;;;;;;24.68;49.32;100646.59;5032354;28;96792;-82
2021/07/29 02:53:38;;;;;;;;;;;;;;;24.69;49.31;100643.72;5030961;28;96645;-82
2021/07/29 02:56:05;;;;;;;;;;;;;;;24.72;49.30;100642.59;5026445;28;100679;-82
2021/07/29 02:58:31;;;;;;;;;;;;;;;24.65;49.53;100641.47;5046137;28;96607;-82
2021/07/29 03:00:58;;;;;;;;;;;;;;;24.68;49.41;100647.41;5039832;28;96780;-83
2021/07/29 03:03:25;;;;;;;;;;;;;;;24.67;49.38;100648.44;5033323;28;101215;-81
2021/07/29 03:05:52;;;;;;;;;;;;;;;24.56;49.78;100654.00;5035457;28;100104;-82
2021/07/29 03:08:18;;;;;;;;;;;;;;;24.46;49.90;100653.19;5047614;28;96954;-82
2021/07/29 03:10:45;;;;;;;;;;;;;;;24.51;49.67;100651.75;5031060;28;97004;-81
2021/07/29 03:13:12;;;;;;;;;;;;;;;24.47;49.92;100652.19;5027301;28;98563;-84
2021/07/29 03:15:38;;;;;;;;;;;;;;;24.45;49.86;100651.47;5024339;28;96744;-84
2021/07/29 03:18:05;;;;;;;;;;;;;;;24.46;49.87;100647.78;5023992;28;96686;-84
2021/07/29 03:20:33;;;;;;;;;;;;;;;24.31;50.03;100649.22;5022880;28;96945;-84
2021/07/29 03:22:59;;;;;;;;;;;;;;;24.21;50.38;100654.66;5016003;28;98563;-85
2021/07/29 03:25:26;;;;;;;;;;;;;;;24.30;50.25;100659.16;5021336;28;100912;-84
2021/07/29 03:27:52;;;;;;;;;;;;;;;24.09;50.65;100658.47;5028991;28;96933;-83
2021/07/29 03:30:18;;;;;;;;;;;;;;;24.11;50.66;100662.72;5025061;28;96915;-84
2021/07/29 03:32:45;;;;;;;;;;;;;;;24.25;50.06;100655.19;5020456;28;100338;-83
2021/07/29 03:35:11;;;;;;;;;;;;;;;24.18;50.42;100660.28;5020809;28;100132;-84
2021/07/29 03:37:39;;;;;;;;;;;;;;;24.11;50.59;100660.00;5027792;28;96919;-84
2021/07/29 03:40:10;;;;;;;;;;;;;;;24.11;50.57;100665.41;5022141;28;97209;-84
2021/07/29 03:42:36;;;;;;;;;;;;;;;24.10;50.49;100668.25;5027272;28;100407;-84
2021/07/29 03:45:03;;;;;;;;;;;;;;;24.16;50.46;100671.22;5026115;28;98325;-86
2021/07/29 03:47:30;;;;;;;;;;;;;;;24.20;50.14;100675.41;5022514;28;96864;-84
2021/07/29 03:49:58;;;;;;;;;;;;;;;24.12;50.44;100672.50;5021056;28;96773;-84
2021/07/29 03:52:24;;;;;;;;;;;;;;;23.67;51.79;100674.06;5021294;28;101882;-83
2021/07/29 03:54:53;;;;;;;;;;;;;;;23.97;51.17;100662.28;5020321;28;99751;-84
2021/07/29 03:57:22;;;;;;;;;;;;;;;24.15;50.28;100666.84;5028990;28;97107;-84
2021/07/29 03:59:48;;;;;;;;;;;;;;;24.47;49.71;100668.41;5023703;28;96838;-84
2021/07/29 04:02:15;;;;;;;;;;;;;;;24.54;49.46;100670.38;5020112;28;99990;-85
2021/07/29 04:04:42;;;;;;;;;;;;;;;24.45;49.45;100667.69;5018097;28;99215;-82
2021/07/29 04:07:09;;;;;;;;;;;;;;;24.58;48.94;100674.47;5040518;28;96867;-83
2021/07/29 04:09:36;;;;;;;;;;;;;;;24.47;49.26;100666.53;5027657;28;96687;-83
2021/07/29 04:12:05;;;;;;;;;;;;;;;24.46;49.32;100678.34;5019315;28;99522;-84
2021/07/29 04:14:31;;;;;;;;;;;;;;;24.33;49.42;100669.69;5017469;28;98294;-83
2021/07/29 04:16:58;;;;;;;;;;;;;;;24.43;49.16;100675.91;5022597;28;96787;-83
2021/07/29 04:19:25;;;;;;;;;;;;;;;24.59;48.81;100670.78;5018362;28;97212;-82
2021/07/29 04:21:51;;;;;;;;;;;;;;;24.68;48.62;100676.31;5021066;28;98682;-84
2021/07/29 04:24:18;;;;;;;;;;;;;;;24.61;48.57;100678.75;5018558;28;98206;-83
2021/07/29 04:26:45;;;;;;;;;;;;;;;24.59;48.63;100680.72;5017073;28;97401;-84
2021/07/29 04:29:13;;;;;;;;;;;;;;;24.58;48.60;100684.41;5019212;28;97692;-83
2021/07/29 04:31:39;;;;;;;;;;;;;;;24.56;48.32;100692.66;5017666;28;99433;-84
2021/07/29 04:34:06;;;;;;;;;;;;;;;24.51;48.61;100689.56;5007769;28;99346;-83
2021/07/29 04:36:38;;;;;;;;;;;;;;;24.60;48.51;100687.84;5017566;28;96740;-82
2021/07/29 04:39:04;;;;;;;;;;;;;;;24.48;48.74;100695.22;5027340;28;96742;-82
2021/07/29 04:41:31;;;;;;;;;;;;;;;24.64;48.06;100700.03;5015686;28;99041;-82
2021/07/29 04:43:57;;;;;;;;;;;;;;;24.64;48.31;100694.63;5012645;28;99019;-83
2021/07/29 04:46:25;;;;;;;;;;;;;;;24.77;47.88;100695.19;5020851;28;96850;-82
2021/07/29 04:48:51;;;;;;;;;;;;;;;24.86;47.70;100693.44;5015029;28;96911;-81
2021/07/29 04:51:18;;;;;;;;;;;;;;;24.83;47.52;100704.53;5006118;28;101253;-83
2021/07/29 04:53:44;;;;;;;;;;;;;;;24.73;47.79;100699.19;5015606;28;100803;-81
2021/07/29 04:56:10;;;;;;;;;;;;;;;24.76;47.64;100701.56;5016522;28;96785;-82
2021/07/29 04:58:37;;;;;;;;;;;;;;;24.62;47.98;100702.03;5019778;28;96928;-80
2021/07/29 05:01:04;;;;;;;;;;;;;;;24.64;47.56;100702.75;5013266;28;98473;-82
2021/07/29 05:03:31;;;;;;;;;;;;;;;24.45;48.36;100708.19;5012275;28;100543;-81
2021/07/29 05:06:00;;;;;;;;;;;;;;;24.67;47.98;100694.38;5013434;28;97052;-80
2021/07/29 05:08:26;;;;;;;;;;;;;;;24.64;47.78;100705.44;5013337;28;97596;-79
2021/07/29 05:10:52;;;;;;;;;;;;;;;24.69;47.63;100707.69;5015119;28;98260;-82
2021/07/29 05:13:19;;;;;;;;;;;;;;;25.00;46.70;100703.81;5004662;28;98061;-82
2021/07/29 05:15:46;;;;;;;;;;;;;;;25.16;46.47;100703.16;5020008;28;96832;-82
2021/07/29 05:18:12;;;;;;;;;;;;;;;25.18;46.61;100698.47;5021936;28;96896;-82
2021/07/29 05:20:40;;;;;;;;;;;;;;;25.31;46.09;100699.84;5026801;28;98253;-81
2021/07/29 05:23:06;;;;;;;;;;;;;;;25.32;45.54;100690.72;5026423;28;97957;-82
2021/07/29 05:25:36;;;;;;;;;;;;;;;25.19;46.01;100690.22;5024737;28;96706;-83
2021/07/29 05:28:02;;;;;;;;;;;;;;;25.27;45.29;100693.00;5026533;28;96919;-83
2021/07/29 05:30:29;;;;;;;;;;;;;;;25.65;44.64;100689.28;5040185;28;98357;-84
2021/07/29 05:32:55;;;;;;;;;;;;;;;25.48;45.02;100686.50;5034584;28;98827;-82
2021/07/29 05:35:22;;;;;;;;;;;;;;;25.35;45.13;100687.69;5016564;28;97581;-81
2021/07/29 05:37:49;;;;;;;;;;;;;;;25.76;44.41;100678.22;5017973;28;96896;-81
2021/07/29 05:40:17;;;;;;;;;;;;;;;25.93;43.94;100681.94;5013634;28;98896;-83
2021/07/29 05:42:44;;;;;;;;;;;;;;;26.07;43.44;100689.50;5034726;28;98723;-85
2021/07/29 05:45:11;;;;;;;;;;;;;;;26.02;43.36;100689.13;5039632;28;97073;-85
2021/07/29 05:47:38;;;;;;;;;;;;;;;26.16;43.46;100685.03;5026247;28;96759;-83
2021/07/29 05:50:07;;;;;;;;;;;;;;;26.01;43.52;100692.00;5023485;28;98133;-86
2021/07/29 05:52:33;;;;;;;;;;;;;;;26.14;43.26;100689.75;5016200;28;99204;-82
2021/07/29 05:55:01;;;;;;;;;;;;;;;26.31;42.72;100693.50;5022095;28;97947;-83
2021/07/29 05:57:37;;;;;;;;;;;;;;;26.31;42.76;100682.66;5035540;27;96944;-88
2021/07/29 06:00:04;;;;;;;;;;;;;;;26.44;42.30;100693.94;5021788;28;100665;-84
2021/07/29 06:02:30;;;;;;;;;;;;;;;26.52;41.64;100688.56;5027061;28;100808;-84
2021/07/29 06:04:57;;;;;;;;;;;;;;;26.40;42.23;100687.97;5025669;28;97512;-83
2021/07/29 06:07:24;;;;;;;;;;;;;;;26.68;41.53;100674.28;5030326;28;97758;-83
2021/07/29 06:09:51;;;;;;;;;;;;;;;26.32;42.15;100677.06;5030145;28;100299;-84
2021/07/29 06:12:24;;;;;;;;;;;;;;;26.52;41.66;100669.59;5028076;28;100348;-85
2021/07/29 06:14:50;;;;;;;;;;;;;;;26.88;41.05;100673.91;5021738;27;96781;-84
2021/07/29 06:17:17;;;;;;;;;;;;;;;26.84;40.77;100668.97;5024068;28;96877;-84
2021/07/29 06:19:44;;;;;;;;;;;;;;;27.04;40.25;100673.19;5027213;28;99467;-82
2021/07/29 06:22:11;;;;;;;;;;;;;;;27.48;39.29;100660.28;5031073;28;99150;-90
2021/07/29 06:24:38;;;;;;;;;;;;;;;28.14;37.82;100662.13;5030566;28;97566;-87
2021/07/29 06:27:05;;;;;;;;;;;;;;;28.22;37.14;100666.72;5030222;28;97074;-86
2021/07/29 06:29:35;;;;;;;;;;;;;;;28.08;37.56;100665.50;5039940;28;96974;-87
2021/07/29 06:32:02;;;;;;;;;;;;;;;28.00;37.86;100674.47;5017321;28;100909;-82
2021/07/29 06:34:28;;;;;;;;;;;;;;;27.62;38.36;100675.09;5014295;28;97968;-83
2021/07/29 06:36:55;;;;;;;;;;;;;;;27.61;38.38;100667.97;5018406;28;97058;-83
2021/07/29 06:39:21;;;;;;;;;;;;;;;27.61;38.18;100670.69;5015756;28;100065;-83
2021/07/29 06:41:47;;;;;;;;;;;;;;;27.77;37.59;100673.41;5021140;28;101112;-83
2021/07/29 06:44:14;;;;;;;;;;;;;;;27.74;37.71;100684.63;5019029;28;97615;-82
2021/07/29 06:46:42;;;;;;;;;;;;;;;27.83;37.92;100683.59;5021824;28;97478;-84
2021/07/29 06:51:49;;;;;;;;;;;;;;;27.79;36.84;100668.69;5027252;28;98680;-87
2021/07/29 06:54:16;;;;;;;;;;;;;;;27.59;37.02;100680.84;5029031;28;96831;-88
2021/07/29 06:56:43;;;;;;;;;;;;;;;27.44;37.43;100677.06;5024681;28;97426;-87
2021/07/29 06:59:09;;;;;;;;;;;;;;;27.70;37.56;100673.22;5025249;28;98452;-85
2021/07/29 07:01:36;;;;;;;;;;;;;;;28.07;36.70;100674.66;5025415;28;101239;-85
2021/07/29 07:04:05;;;;;;;;;;;;;;;28.36;35.98;100679.59;5018213;28;96917;-85
2021/07/29 07:06:33;;;;;;;;;;;;;;;28.15;35.26;100672.00;5021040;28;97275;-85
2021/07/29 07:09:03;;;;;;;;;;;;;;;28.46;34.91;100669.41;5024005;28;99207;-86
2021/07/29 07:11:29;;;;;;;;;;;;;;;28.27;33.78;100667.91;5030639;27;97449;-83
2021/07/29 07:13:56;;;;;;;;;;;;;;;28.79;32.49;100662.94;5010553;28;96876;-84
2021/07/29 07:16:22;;;;;;;;;;;;;;;28.80;32.33;100655.63;5036324;28;96850;-85
2021/07/29 07:18:49;;;;;;;;;;;;;;;28.72;32.74;100652.88;5018017;28;98275;-84
2021/07/29 07:21:16;;;;;;;;;;;;;;;29.04;32.36;100658.25;5015510;28;97686;-83
2021/07/29 07:23:43;;;;;;;;;;;;;;;29.45;31.03;100652.66;5018993;28;96738;-84
2021/07/29 07:26:16;;;;;;;;;;;;;;;29.11;31.74;100663.84;5013617;28;98583;-84
2021/07/29 07:28:43;;;;;;;;;;;;;;;28.89;32.41;100666.28;5028230;28;98410;-84
2021/07/29 07:31:09;;;;;;;;;;;;;;;28.71;32.84;100656.63;5021328;28;100827;-83
2021/07/29 07:33:36;;;;;;;;;;;;;;;28.82;32.32;100654.41;5020474;28;96842;-84
2021/07/29 07:36:03;;;;;;;;;;;;;;;28.54;32.67;100653.09;5031818;28;96925;-85
2021/07/29 07:38:31;;;;;;;;;;;;;;;28.54;32.91;100640.38;5017767;28;100197;-83
2021/07/29 07:40:59;;;;;;;;;;;;;;;28.11;33.20;100652.41;5017893;28;99187;-83
2021/07/29 07:43:25;;;;;;;;;;;;;;;28.13;33.07;100658.53;5012366;28;97869;-84
2021/07/29 07:45:52;;;;;;;;;;;;;;;28.38;32.91;100653.97;5016221;28;96847;-84
2021/07/29 07:48:19;;;;;;;;;;;;;;;28.79;32.39;100652.06;5017276;28;102859;-84
2021/07/29 07:50:47;;;;;;;;;;;;;;;29.15;31.75;100643.41;5017681;28;98043;-84
2021/07/29 07:53:13;;;;;;;;;;;;;;;29.25;31.09;100644.91;5026900;28;96886;-84
2021/07/29 07:55:41;;;;;;;;;;;;;;;28.66;31.88;100646.28;5016997;28;96897;-83
2021/07/29 07:58:07;;;;;;;;;;;;;;;28.24;32.32;100651.06;5013976;28;97890;-83
2021/07/29 08:00:34;;;;;;;;;;;;;;;28.87;31.87;100648.47;5018468;28;101420;-83
2021/07/29 08:03:00;;;;;;;;;;;;;;;28.91;31.85;100650.66;5010899;28;97632;-83
2021/07/29 08:05:27;;;;;;;;;;;;;;;27.93;33.40;100649.00;5018786;28;96878;-83
2021/07/29 08:07:57;;;;;;;;;;;;;;;28.87;31.48;100646.59;5031064;28;96942;-86
2021/07/29 08:10:23;;;;;;;;;;;;;;;28.99;31.77;100638.91;5026585;28;100260;-83
2021/07/29 08:12:51;;;;;;;;;;;;;;;29.04;31.97;100631.06;5025903;28;97065;-84
2021/07/29 08:15:18;;;;;;;;;;;;;;;28.77;32.44;100640.50;5025619;28;96839;-87
2021/07/29 08:17:44;;;;;;;;;;;;;;;28.71;32.72;100635.72;5031047;28;96909;-83
2021/07/29 08:20:11;;;;;;;;;;;;;;;28.83;32.13;100628.06;5020839;28;100352;-84
2021/07/29 08:22:38;;;;;;;;;;;;;;;29.04;32.31;100631.06;5024809;28;97349;-84
2021/07/29 08:25:04;;;;;;;;;;;;;;;28.25;33.31;100639.19;5032765;28;96751;-83
2021/07/29 08:27:34;;;;;;;;;;;;;;;28.42;32.87;100638.19;5042662;28;96968;-83
2021/07/29 08:30:02;;;;;;;;;;;;;;;27.69;34.51;100643.56;5030759;28;101573;-83
2021/07/29 08:32:28;;;;;;;;;;;;;;;27.96;34.17;100651.38;5044012;28;96762;-82
2021/07/29 08:34:55;;;;;;;;;;;;;;;27.58;34.30;100642.00;5045010;28;96581;-83
2021/07/29 08:37:21;;;;;;;;;;;;;;;27.89;33.88;100644.09;5032145;27;96846;-82
2021/07/29 08:39:48;;;;;;;;;;;;;;;27.72;34.37;100640.50;5040578;28;99435;-83
2021/07/29 08:42:15;;;;;;;;;;;;;;;27.67;34.25;100641.00;5034991;28;97179;-83
2021/07/29 08:44:42;;;;;;;;;;;;;;;27.97;33.72;100646.81;5028146;28;96580;-83
2021/07/29 08:47:14;;;;;;;;;;;;;;;27.35;34.38;100633.63;5031964;28;98204;-84
2021/07/29 08:49:41;;;;;;;;;;;;;;;28.03;33.27;100641.53;5023678;28;97706;-84
2021/07/29 08:52:09;;;;;;;;;;;;;;;28.84;32.01;100633.34;5025247;28;97140;-84
2021/07/29 08:54:38;;;;;;;;;;;;;;;28.16;33.19;100626.66;5022014;28;96785;-83
2021/07/29 08:57:04;;;;;;;;;;;;;;;27.96;33.23;100626.94;5022105;28;99394;-83
2021/07/29 08:59:31;;;;;;;;;;;;;;;29.23;32.02;100629.78;5020686;28;100610;-83
2021/07/29 09:02:00;;;;;;;;;;;;;;;28.97;32.54;100626.50;5027672;28;96991;-83
2021/07/29 09:04:28;;;;;;;;;;;;;;;29.01;31.99;100636.88;5027020;28;97094;-84
2021/07/29 09:06:57;;;;;;;;;;;;;;;29.30;31.51;100636.19;5019755;28;98966;-85
2021/07/29 09:09:41;;;;;;;;;;;;;;;29.29;31.32;100629.06;5010080;28;100821;-84
2021/07/29 09:12:15;;;;;;;;;;;;;;;29.28;31.09;100635.53;5019843;28;97076;-83
2021/07/29 09:14:41;;;;;;;;;;;;;;;29.73;31.28;100632.88;5022398;28;96921;-82
2021/07/29 09:17:08;;;;;;;;;;;;;;;29.42;31.20;100640.25;5017844;28;98095;-82
2021/07/29 09:19:36;;;;;;;;;;;;;;;29.60;31.27;100631.81;5017701;28;99454;-84
2021/07/29 09:22:07;;;;;;;;;;;;;;;29.25;30.76;100639.47;5026997;28;97216;-83
2021/07/29 09:24:34;;;;;;;;;;;;;;;29.27;30.28;100633.84;5035077;28;96834;-83
2021/07/29 09:27:01;;;;;;;;;;;;;;;29.56;29.95;100630.47;5029782;28;98196;-83
2021/07/29 09:29:28;;;;;;;;;;;;;;;30.30;29.27;100628.91;5033378;28;96813;-83
2021/07/29 09:32:05;;;;;;;;;;;;;;;30.53;28.73;100617.94;5034575;27;96678;-85
2021/07/29 09:34:46;;;;;;;;;;;;;;;30.49;28.54;100642.88;5034873;28;96752;-83
2021/07/29 09:37:15;;;;;;;;;;;;;;;29.89;28.91;100633.81;5037135;27;98422;-84
2021/07/29 09:39:42;;;;;;;;;;;;;;;29.58;29.49;100612.94;5028872;28;97017;-84
2021/07/29 09:42:20;;;;;;;;;;;;;;;29.82;29.26;100614.63;5027445;28;96839;-83
2021/07/29 09:44:48;;;;;;;;;;;;;;;29.22;30.11;100617.19;5028563;28;97398;-84
2021/07/29 09:47:15;;;;;;;;;;;;;;;29.00;30.72;100616.13;5028581;28;99537;-83
2021/07/29 09:49:41;;;;;;;;;;;;;;;28.37;32.10;100608.78;5026612;28;99986;-83
2021/07/29 09:52:09;;;;;;;;;;;;;;;28.54;32.29;100621.34;5037022;28;96696;-84
2021/07/29 09:54:40;;;;;;;;;;;;;;;27.61;34.41;100619.97;5033527;28;97679;-84
2021/07/29 09:57:08;;;;;;;;;;;;;;;27.67;34.72;100621.16;5038472;28;97963;-85
2021/07/29 09:59:36;;;;;;;;;;;;;;;28.04;33.99;100620.66;5033496;28;97018;-83
2021/07/29 10:02:04;;;;;;;;;;;;;;;28.21;33.71;100633.28;5035245;28;96967;-84
2021/07/29 10:04:33;;;;;;;;;;;;;;;27.95;33.90;100630.69;5026744;28;96968;-83
2021/07/29 10:07:01;;;;;;;;;;;;;;;28.05;34.20;100631.38;5028268;28;97838;-81
2021/07/29 10:09:31;;;;;;;;;;;;;;;28.12;33.68;100640.53;5022299;28;98406;-83
2021/07/29 10:11:59;;;;;;;;;;;;;;;27.65;34.27;100634.88;5018500;28;97745;-84
2021/07/29 10:14:44;;;;;;;;;;;;;;;27.61;33.90;100636.25;5021931;28;97290;-85
2021/07/29 10:17:15;;;;;;;;;;;;;;;28.24;32.45;100632.91;5019257;28;100175;-84
2021/07/29 10:20:00;;;;;;;;;;;;;;;28.08;32.70;100632.91;5020429;28;97732;-84
2021/07/29 10:22:27;;;;;;;;;;;;;;;28.58;31.71;100627.25;5022400;28;96814;-82
2021/07/29 10:24:55;;;;;;;;;;;;;;;28.81;31.83;100617.38;5021598;28;97088;-83
2021/07/29 10:27:22;;;;;;;;;;;;;;;28.65;31.87;100625.53;5018888;28;98176;-83
2021/07/29 10:29:48;;;;;;;;;;;;;;;27.42;33.54;100619.38;5020444;28;98166;-83
2021/07/29 10:32:20;;;;;;;;;;;;;;;27.93;33.50;100616.44;5021488;28;97093;-83
2021/07/29 10:34:50;;;;;;;;;;;;;;;27.46;33.11;100627.03;5031194;28;96749;-82
2021/07/29 10:37:36;;;;;;;;;;;;;;;27.98;32.15;100626.78;5020580;28;99759;-84
2021/07/29 10:40:06;;;;;;;;;;;;;;;28.67;30.90;100628.94;5020104;28;98749;-84
2021/07/29 10:42:32;;;;;;;;;;;;;;;28.00;31.81;100625.59;5018137;28;96907;-84
2021/07/29 10:44:59;;;;;;;;;;;;;;;28.30;31.25;100625.94;5016271;28;96779;-84
2021/07/29 10:47:45;;;;;;;;;;;;;;;28.95;30.25;100620.41;5027394;28;98900;-84
2021/07/29 10:50:25;;;;;;;;;;;;;;;28.96;30.48;100627.50;5014081;28;98423;-87
2021/07/29 10:52:52;;;;;;;;;;;;;;;29.14;30.16;100620.81;5026914;28;96922;-84
2021/07/29 10:55:22;;;;;;;;;;;;;;;29.38;29.31;100614.41;5032170;28;97307;-83
2021/07/29 10:57:58;;;;;;;;;;;;;;;29.95;29.00;100619.50;5029770;28;99385;-84
2021/07/29 11:03:23;;;;;;;;;;;;;;;28.89;30.06;100619.19;5039279;27;96067;-92
2021/07/29 11:06:02;;;;;;;;;;;;;;;28.63;30.63;100613.13;5059825;22;97251;-88
2021/07/29 11:08:34;;;;;;;;;;;;;;;28.71;30.33;100624.00;5032825;27;97930;-90
2021/07/29 11:11:16;;;;;;;;;;;;;;;28.58;30.44;100629.13;5043338;28;98027;-90
2021/07/29 11:13:56;;;;;;;;;;;;;;;28.82;29.83;100627.22;5026762;28;96860;-90
2021/07/29 11:24:43;;;;;;;;;;;;;;;28.66;30.26;100623.69;5016333;28;97606;-84
2021/07/29 11:27:13;;;;;;;;;;;;;;;29.14;29.75;100614.53;5011871;28;98113;-83
2021/07/29 11:29:54;;;;;;;;;;;;;;;29.58;29.52;100614.81;5021590;28;97765;-84
2021/07/29 11:32:21;;;;;;;;;;;;;;;30.00;27.79;100606.16;5014120;28;100551;-84
2021/07/29 11:34:55;;;;;;;;;;;;;;;30.08;27.58;100612.41;5033800;28;97279;-84
2021/07/29 11:37:21;;;;;;;;;;;;;;;30.35;26.68;100615.56;5027402;28;96468;-85
2021/07/29 11:39:48;;;;;;;;;;;;;;;29.75;26.27;100612.81;5027917;28;98896;-86
2021/07/29 11:42:14;;;;;;;;;;;;;;;29.82;25.55;100609.19;5021900;28;96854;-85
2021/07/29 11:44:44;;;;;;;;;;;;;;;30.05;24.60;100610.06;5031449;28;96669;-92
2021/07/29 11:47:12;;;;;;;;;;;;;;;30.03;25.27;100600.34;5033659;28;96694;-91
2021/07/29 11:49:47;;;;;;;;;;;;;;;30.58;25.01;100604.63;5034896;28;97922;-90
2021/07/29 11:52:15;;;;;;;;;;;;;;;30.76;24.40;100608.66;5035407;27;100465;-90
2021/07/29 11:54:45;;;;;;;;;;;;;;;30.35;24.66;100604.66;5040302;27;96200;-90
2021/07/29 11:57:12;;;;;;;;;;;;;;;30.65;24.17;100602.84;5019201;28;97080;-86
2021/07/29 12:02:24;;;;;;;;;;;;;;;30.58;23.85;100608.22;5026050;28;98856;-87
2021/07/29 12:04:51;;;;;;;;;;;;;;;30.96;23.08;100599.91;5018116;28;96859;-85
2021/07/29 12:07:18;;;;;;;;;;;;;;;30.91;23.72;100600.50;5022221;28;96980;-84
2021/07/29 12:09:54;;;;;;;;;;;;;;;30.87;24.09;100596.44;5011483;28;97787;-83
2021/07/29 12:12:21;;;;;;;;;;;;;;;30.49;23.43;100601.97;5019289;28;96907;-85
2021/07/29 12:14:48;;;;;;;;;;;;;;;29.25;23.79;100600.53;5018357;28;96776;-85
2021/07/29 12:17:19;;;;;;;;;;;;;;;28.62;24.68;100611.47;5020133;28;96877;-83
2021/07/29 12:19:56;;;;;;;;;;;;;;;29.58;24.12;100612.09;5006732;28;99901;-84
2021/07/29 12:22:24;;;;;;;;;;;;;;;29.63;24.70;100615.97;5023201;28;97754;-87
2021/07/29 12:24:50;;;;;;;;;;;;;;;29.07;23.97;100629.88;5015235;28;96936;-87
2021/07/29 12:27:19;;;;;;;;;;;;;;;28.81;24.87;100620.09;5020899;28;97047;-85
2021/07/29 12:29:49;;;;;;;;;;;;;;;29.36;24.23;100624.63;5019166;28;99809;-86
2021/07/29 12:32:20;;;;;;;;;;;;;;;29.10;24.36;100629.50;5017120;28;98154;-85
2021/07/29 12:34:47;;;;;;;;;;;;;;;28.28;25.15;100622.56;5019118;28;96954;-84
2021/07/29 12:40:27;;;;;;;;;;;;;;;29.01;25.09;100615.09;5028479;28;98915;-86
2021/07/29 12:42:54;;;;;;;;;;;;;;;29.69;24.87;100626.13;5020994;28;99963;-85
2021/07/29 12:45:22;;;;;;;;;;;;;;;29.56;24.79;100616.84;5015347;28;96744;-86
2021/07/29 12:48:05;;;;;;;;;;;;;;;29.83;24.32;100612.75;5023008;28;96697;-85
2021/07/29 12:50:37;;;;;;;;;;;;;;;29.81;24.99;100612.94;5012567;28;100325;-86
2021/07/29 12:53:12;;;;;;;;;;;;;;;29.21;25.53;100596.47;5015056;28;96971;-88
2021/07/29 12:55:39;;;;;;;;;;;;;;;29.64;24.96;100598.59;5020512;28;97414;-85
2021/07/29 12:58:07;;;;;;;;;;;;;;;29.55;25.39;100602.41;5022683;28;97210;-84
2021/07/29 13:00:34;;;;;;;;;;;;;;;29.97;24.87;100598.38;5019359;28;101284;-86